sensor_id;sensor_type;location;lat;lon;timestamp;P1;durP1;ratioP1;P2;durP2;ratioP2
47167;SDS011;32931;47.778;17.806;2022-08-21T00:00:16;2.35;;;1.52;;
47167;SDS011;32931;47.778;17.806;2022-08-21T00:02:47;2.53;;;1.20;;
47167;SDS011;32931;47.778;17.806;2022-08-21T00:05:18;1.73;;;1.50;;
47167;SDS011;32931;47.778;17.806;2022-08-21T00:07:45;3.53;;;1.48;;
47167;SDS011;32931;47.778;17.806;2022-08-21T00:10:11;1.50;;;1.40;;
47167;SDS011;32931;47.778;17.806;2022-08-21T00:12:39;1.73;;;1.40;;
47167;SDS011;32931;47.778;17.806;2022-08-21T00:15:06;2.33;;;1.63;;
47167;SDS011;32931;47.778;17.806;2022-08-21T00:17:35;2.08;;;1.63;;
47167;SDS011;32931;47.778;17.806;2022-08-21T00:20:03;2.13;;;1.60;;
47167;SDS011;32931;47.778;17.806;2022-08-21T00:22:31;3.33;;;1.70;;
47167;SDS011;32931;47.778;17.806;2022-08-21T00:24:58;1.77;;;1.52;;
47167;SDS011;32931;47.778;17.806;2022-08-21T00:27:24;3.75;;;1.70;;
47167;SDS011;32931;47.778;17.806;2022-08-21T00:29:50;2.13;;;1.40;;
47167;SDS011;32931;47.778;17.806;2022-08-21T00:32:19;3.45;;;1.30;;
47167;SDS011;32931;47.778;17.806;2022-08-21T00:34:46;3.22;;;1.52;;
47167;SDS011;32931;47.778;17.806;2022-08-21T00:37:13;2.22;;;1.40;;
47167;SDS011;32931;47.778;17.806;2022-08-21T00:39:39;1.98;;;1.60;;
47167;SDS011;32931;47.778;17.806;2022-08-21T00:42:05;1.50;;;1.40;;
47167;SDS011;32931;47.778;17.806;2022-08-21T00:44:31;2.13;;;1.30;;
47167;SDS011;32931;47.778;17.806;2022-08-21T00:46:58;3.80;;;1.42;;
47167;SDS011;32931;47.778;17.806;2022-08-21T00:49:24;3.38;;;1.48;;
47167;SDS011;32931;47.778;17.806;2022-08-21T00:51:54;2.13;;;1.50;;
47167;SDS011;32931;47.778;17.806;2022-08-21T00:54:24;2.35;;;1.38;;
47167;SDS011;32931;47.778;17.806;2022-08-21T00:57:05;1.70;;;1.10;;
47167;SDS011;32931;47.778;17.806;2022-08-21T00:59:36;2.10;;;1.40;;
47167;SDS011;32931;47.778;17.806;2022-08-21T01:02:06;1.50;;;1.25;;
47167;SDS011;32931;47.778;17.806;2022-08-21T01:04:34;2.38;;;1.27;;
47167;SDS011;32931;47.778;17.806;2022-08-21T01:07:01;2.55;;;1.30;;
47167;SDS011;32931;47.778;17.806;2022-08-21T01:09:28;2.10;;;1.27;;
47167;SDS011;32931;47.778;17.806;2022-08-21T01:11:54;4.57;;;1.40;;
47167;SDS011;32931;47.778;17.806;2022-08-21T01:14:20;5.40;;;1.13;;
47167;SDS011;32931;47.778;17.806;2022-08-21T01:16:48;1.83;;;1.20;;
47167;SDS011;32931;47.778;17.806;2022-08-21T01:19:18;3.67;;;1.40;;
47167;SDS011;32931;47.778;17.806;2022-08-21T01:21:46;4.97;;;1.40;;
47167;SDS011;32931;47.778;17.806;2022-08-21T01:24:13;3.72;;;1.40;;
47167;SDS011;32931;47.778;17.806;2022-08-21T01:26:40;2.95;;;1.10;;
47167;SDS011;32931;47.778;17.806;2022-08-21T01:31:39;1.43;;;1.23;;
47167;SDS011;32931;47.778;17.806;2022-08-21T01:34:06;2.13;;;1.33;;
47167;SDS011;32931;47.778;17.806;2022-08-21T01:36:33;2.40;;;1.20;;
47167;SDS011;32931;47.778;17.806;2022-08-21T01:39:00;2.95;;;1.42;;
47167;SDS011;32931;47.778;17.806;2022-08-21T01:41:27;2.33;;;1.40;;
47167;SDS011;32931;47.778;17.806;2022-08-21T01:43:53;3.30;;;1.98;;
47167;SDS011;32931;47.778;17.806;2022-08-21T01:46:19;2.30;;;1.40;;
47167;SDS011;32931;47.778;17.806;2022-08-21T01:48:46;2.20;;;1.40;;
47167;SDS011;32931;47.778;17.806;2022-08-21T01:51:12;2.38;;;1.30;;
47167;SDS011;32931;47.778;17.806;2022-08-21T01:53:39;2.67;;;1.50;;
47167;SDS011;32931;47.778;17.806;2022-08-21T01:56:07;1.85;;;1.30;;
47167;SDS011;32931;47.778;17.806;2022-08-21T01:58:34;4.85;;;1.40;;
47167;SDS011;32931;47.778;17.806;2022-08-21T02:01:01;2.30;;;1.42;;
47167;SDS011;32931;47.778;17.806;2022-08-21T02:03:28;3.28;;;1.40;;
47167;SDS011;32931;47.778;17.806;2022-08-21T02:05:55;3.28;;;1.40;;
47167;SDS011;32931;47.778;17.806;2022-08-21T02:08:22;1.92;;;1.55;;
47167;SDS011;32931;47.778;17.806;2022-08-21T02:10:49;2.60;;;1.45;;
47167;SDS011;32931;47.778;17.806;2022-08-21T02:13:17;2.17;;;1.30;;
47167;SDS011;32931;47.778;17.806;2022-08-21T02:15:44;2.08;;;1.40;;
47167;SDS011;32931;47.778;17.806;2022-08-21T02:18:10;1.48;;;1.38;;
47167;SDS011;32931;47.778;17.806;2022-08-21T02:20:38;2.80;;;1.30;;
47167;SDS011;32931;47.778;17.806;2022-08-21T02:23:06;4.10;;;1.40;;
47167;SDS011;32931;47.778;17.806;2022-08-21T02:25:34;3.85;;;1.30;;
47167;SDS011;32931;47.778;17.806;2022-08-21T02:28:08;2.17;;;1.30;;
47167;SDS011;32931;47.778;17.806;2022-08-21T02:30:40;1.65;;;1.55;;
47167;SDS011;32931;47.778;17.806;2022-08-21T02:33:10;4.10;;;1.20;;
47167;SDS011;32931;47.778;17.806;2022-08-21T02:35:38;2.88;;;1.30;;
47167;SDS011;32931;47.778;17.806;2022-08-21T02:38:08;2.20;;;1.35;;
47167;SDS011;32931;47.778;17.806;2022-08-21T02:40:37;1.98;;;1.40;;
47167;SDS011;32931;47.778;17.806;2022-08-21T02:43:06;4.20;;;1.40;;
47167;SDS011;32931;47.778;17.806;2022-08-21T02:45:33;2.35;;;1.30;;
47167;SDS011;32931;47.778;17.806;2022-08-21T02:48:04;1.40;;;1.20;;
47167;SDS011;32931;47.778;17.806;2022-08-21T02:50:35;2.00;;;1.50;;
47167;SDS011;32931;47.778;17.806;2022-08-21T02:55:35;1.98;;;1.50;;
47167;SDS011;32931;47.778;17.806;2022-08-21T02:58:03;1.77;;;1.50;;
47167;SDS011;32931;47.778;17.806;2022-08-21T03:00:31;1.77;;;1.40;;
47167;SDS011;32931;47.778;17.806;2022-08-21T03:02:58;2.75;;;1.40;;
47167;SDS011;32931;47.778;17.806;2022-08-21T03:05:26;1.63;;;1.52;;
47167;SDS011;32931;47.778;17.806;2022-08-21T03:07:53;2.63;;;1.70;;
47167;SDS011;32931;47.778;17.806;2022-08-21T03:10:21;1.67;;;1.38;;
47167;SDS011;32931;47.778;17.806;2022-08-21T03:12:47;4.53;;;1.50;;
47167;SDS011;32931;47.778;17.806;2022-08-21T03:15:15;2.38;;;1.50;;
47167;SDS011;32931;47.778;17.806;2022-08-21T03:17:43;1.92;;;1.40;;
47167;SDS011;32931;47.778;17.806;2022-08-21T03:20:10;1.73;;;1.27;;
47167;SDS011;32931;47.778;17.806;2022-08-21T03:22:39;2.03;;;1.58;;
47167;SDS011;32931;47.778;17.806;2022-08-21T03:25:06;4.30;;;1.50;;
47167;SDS011;32931;47.778;17.806;2022-08-21T03:27:33;1.63;;;1.30;;
47167;SDS011;32931;47.778;17.806;2022-08-21T03:30:00;2.40;;;1.38;;
47167;SDS011;32931;47.778;17.806;2022-08-21T03:32:27;2.13;;;1.42;;
47167;SDS011;32931;47.778;17.806;2022-08-21T03:34:54;1.95;;;1.25;;
47167;SDS011;32931;47.778;17.806;2022-08-21T03:37:20;4.07;;;1.40;;
47167;SDS011;32931;47.778;17.806;2022-08-21T03:39:46;1.70;;;1.40;;
47167;SDS011;32931;47.778;17.806;2022-08-21T03:42:13;1.80;;;1.30;;
47167;SDS011;32931;47.778;17.806;2022-08-21T03:44:39;2.05;;;1.50;;
47167;SDS011;32931;47.778;17.806;2022-08-21T03:47:05;3.67;;;1.30;;
47167;SDS011;32931;47.778;17.806;2022-08-21T03:49:32;2.22;;;1.42;;
47167;SDS011;32931;47.778;17.806;2022-08-21T03:51:59;1.65;;;1.48;;
47167;SDS011;32931;47.778;17.806;2022-08-21T03:54:25;1.60;;;1.50;;
47167;SDS011;32931;47.778;17.806;2022-08-21T03:56:51;2.60;;;1.50;;
47167;SDS011;32931;47.778;17.806;2022-08-21T03:59:18;1.85;;;1.35;;
47167;SDS011;32931;47.778;17.806;2022-08-21T04:01:54;1.85;;;1.50;;
47167;SDS011;32931;47.778;17.806;2022-08-21T04:04:21;2.92;;;1.50;;
47167;SDS011;32931;47.778;17.806;2022-08-21T04:06:48;1.95;;;1.60;;
47167;SDS011;32931;47.778;17.806;2022-08-21T04:09:16;1.50;;;1.40;;
47167;SDS011;32931;47.778;17.806;2022-08-21T04:11:42;2.13;;;1.63;;
47167;SDS011;32931;47.778;17.806;2022-08-21T04:14:10;2.85;;;1.52;;
47167;SDS011;32931;47.778;17.806;2022-08-21T04:16:37;3.40;;;1.30;;
47167;SDS011;32931;47.778;17.806;2022-08-21T04:19:04;5.22;;;1.70;;
47167;SDS011;32931;47.778;17.806;2022-08-21T04:21:30;2.63;;;1.85;;
47167;SDS011;32931;47.778;17.806;2022-08-21T04:23:57;2.25;;;1.55;;
47167;SDS011;32931;47.778;17.806;2022-08-21T04:26:25;2.05;;;1.50;;
47167;SDS011;32931;47.778;17.806;2022-08-21T04:28:51;2.08;;;1.42;;
47167;SDS011;32931;47.778;17.806;2022-08-21T04:31:18;4.13;;;1.50;;
47167;SDS011;32931;47.778;17.806;2022-08-21T04:33:44;3.28;;;1.42;;
47167;SDS011;32931;47.778;17.806;2022-08-21T04:36:10;2.33;;;1.85;;
47167;SDS011;32931;47.778;17.806;2022-08-21T04:38:37;2.20;;;1.70;;
47167;SDS011;32931;47.778;17.806;2022-08-21T04:41:03;4.97;;;1.85;;
47167;SDS011;32931;47.778;17.806;2022-08-21T04:43:30;2.78;;;1.98;;
47167;SDS011;32931;47.778;17.806;2022-08-21T04:45:57;4.57;;;1.80;;
47167;SDS011;32931;47.778;17.806;2022-08-21T04:48:25;5.68;;;1.95;;
47167;SDS011;32931;47.778;17.806;2022-08-21T04:58:57;2.00;;;1.77;;
47167;SDS011;32931;47.778;17.806;2022-08-21T05:01:28;5.32;;;1.90;;
47167;SDS011;32931;47.778;17.806;2022-08-21T05:03:56;2.80;;;2.08;;
47167;SDS011;32931;47.778;17.806;2022-08-21T05:06:25;2.15;;;1.90;;
47167;SDS011;32931;47.778;17.806;2022-08-21T05:08:53;2.25;;;1.95;;
47167;SDS011;32931;47.778;17.806;2022-08-21T05:11:20;2.80;;;1.90;;
47167;SDS011;32931;47.778;17.806;2022-08-21T05:13:48;3.85;;;2.00;;
47167;SDS011;32931;47.778;17.806;2022-08-21T05:16:15;2.88;;;1.98;;
47167;SDS011;32931;47.778;17.806;2022-08-21T05:18:42;3.53;;;1.98;;
47167;SDS011;32931;47.778;17.806;2022-08-21T05:21:09;2.95;;;1.90;;
47167;SDS011;32931;47.778;17.806;2022-08-21T05:23:35;3.45;;;1.85;;
47167;SDS011;32931;47.778;17.806;2022-08-21T05:26:02;2.20;;;1.75;;
47167;SDS011;32931;47.778;17.806;2022-08-21T05:28:30;4.03;;;1.80;;
47167;SDS011;32931;47.778;17.806;2022-08-21T05:30:57;1.92;;;1.73;;
47167;SDS011;32931;47.778;17.806;2022-08-21T05:33:23;4.43;;;1.70;;
47167;SDS011;32931;47.778;17.806;2022-08-21T05:35:51;2.47;;;1.70;;
47167;SDS011;32931;47.778;17.806;2022-08-21T05:38:18;4.43;;;2.00;;
47167;SDS011;32931;47.778;17.806;2022-08-21T05:40:45;3.65;;;2.03;;
47167;SDS011;32931;47.778;17.806;2022-08-21T05:43:12;6.80;;;2.10;;
47167;SDS011;32931;47.778;17.806;2022-08-21T05:45:39;4.63;;;1.95;;
47167;SDS011;32931;47.778;17.806;2022-08-21T05:48:06;2.00;;;1.73;;
47167;SDS011;32931;47.778;17.806;2022-08-21T05:50:34;2.58;;;1.70;;
47167;SDS011;32931;47.778;17.806;2022-08-21T05:53:21;4.38;;;1.63;;
47167;SDS011;32931;47.778;17.806;2022-08-21T05:55:50;2.55;;;2.00;;
47167;SDS011;32931;47.778;17.806;2022-08-21T05:58:18;2.47;;;1.70;;
47167;SDS011;32931;47.778;17.806;2022-08-21T06:00:46;2.53;;;1.98;;
47167;SDS011;32931;47.778;17.806;2022-08-21T06:03:15;2.30;;;1.70;;
47167;SDS011;32931;47.778;17.806;2022-08-21T06:05:44;3.10;;;1.80;;
47167;SDS011;32931;47.778;17.806;2022-08-21T06:08:11;2.17;;;1.60;;
47167;SDS011;32931;47.778;17.806;2022-08-21T06:10:38;2.33;;;1.80;;
47167;SDS011;32931;47.778;17.806;2022-08-21T06:13:04;2.28;;;1.88;;
47167;SDS011;32931;47.778;17.806;2022-08-21T06:15:30;2.83;;;1.83;;
47167;SDS011;32931;47.778;17.806;2022-08-21T06:17:57;2.58;;;2.00;;
47167;SDS011;32931;47.778;17.806;2022-08-21T06:20:23;4.05;;;1.60;;
47167;SDS011;32931;47.778;17.806;2022-08-21T06:22:49;4.65;;;1.73;;
47167;SDS011;32931;47.778;17.806;2022-08-21T06:25:15;4.60;;;2.00;;
47167;SDS011;32931;47.778;17.806;2022-08-21T06:27:41;2.25;;;1.60;;
47167;SDS011;32931;47.778;17.806;2022-08-21T06:30:08;4.43;;;1.70;;
47167;SDS011;32931;47.778;17.806;2022-08-21T06:32:35;2.25;;;1.80;;
47167;SDS011;32931;47.778;17.806;2022-08-21T06:35:02;4.40;;;1.75;;
47167;SDS011;32931;47.778;17.806;2022-08-21T06:37:29;2.33;;;1.90;;
47167;SDS011;32931;47.778;17.806;2022-08-21T06:39:55;3.88;;;1.70;;
47167;SDS011;32931;47.778;17.806;2022-08-21T06:42:22;2.50;;;2.03;;
47167;SDS011;32931;47.778;17.806;2022-08-21T06:44:49;5.43;;;1.85;;
47167;SDS011;32931;47.778;17.806;2022-08-21T06:47:15;3.50;;;1.70;;
47167;SDS011;32931;47.778;17.806;2022-08-21T06:49:41;2.70;;;1.60;;
47167;SDS011;32931;47.778;17.806;2022-08-21T06:52:08;2.00;;;1.80;;
47167;SDS011;32931;47.778;17.806;2022-08-21T06:54:36;2.42;;;1.55;;
47167;SDS011;32931;47.778;17.806;2022-08-21T06:57:03;3.25;;;1.65;;
47167;SDS011;32931;47.778;17.806;2022-08-21T06:59:29;3.80;;;1.40;;
47167;SDS011;32931;47.778;17.806;2022-08-21T07:01:57;3.20;;;1.48;;
47167;SDS011;32931;47.778;17.806;2022-08-21T07:04:24;1.42;;;1.25;;
47167;SDS011;32931;47.778;17.806;2022-08-21T07:06:51;4.13;;;1.65;;
47167;SDS011;32931;47.778;17.806;2022-08-21T07:09:17;1.55;;;1.30;;
47167;SDS011;32931;47.778;17.806;2022-08-21T07:11:44;3.15;;;1.15;;
47167;SDS011;32931;47.778;17.806;2022-08-21T07:14:14;3.20;;;1.20;;
47167;SDS011;32931;47.778;17.806;2022-08-21T07:16:41;2.47;;;1.30;;
47167;SDS011;32931;47.778;17.806;2022-08-21T07:19:07;4.63;;;1.30;;
47167;SDS011;32931;47.778;17.806;2022-08-21T07:21:33;1.17;;;1.00;;
47167;SDS011;32931;47.778;17.806;2022-08-21T07:23:59;2.75;;;1.20;;
47167;SDS011;32931;47.778;17.806;2022-08-21T07:26:26;1.48;;;1.10;;
47167;SDS011;32931;47.778;17.806;2022-08-21T07:28:52;1.80;;;1.33;;
47167;SDS011;32931;47.778;17.806;2022-08-21T07:31:20;2.35;;;1.10;;
47167;SDS011;32931;47.778;17.806;2022-08-21T07:33:48;1.33;;;0.90;;
47167;SDS011;32931;47.778;17.806;2022-08-21T07:36:14;1.42;;;1.20;;
47167;SDS011;32931;47.778;17.806;2022-08-21T07:38:41;6.07;;;1.25;;
47167;SDS011;32931;47.778;17.806;2022-08-21T07:41:17;1.52;;;1.20;;
47167;SDS011;32931;47.778;17.806;2022-08-21T07:43:45;2.35;;;0.98;;
47167;SDS011;32931;47.778;17.806;2022-08-21T07:46:12;4.45;;;1.30;;
47167;SDS011;32931;47.778;17.806;2022-08-21T07:48:39;2.65;;;1.17;;
47167;SDS011;32931;47.778;17.806;2022-08-21T07:51:06;1.60;;;1.10;;
47167;SDS011;32931;47.778;17.806;2022-08-21T07:53:36;1.35;;;1.20;;
47167;SDS011;32931;47.778;17.806;2022-08-21T07:56:03;1.67;;;1.00;;
47167;SDS011;32931;47.778;17.806;2022-08-21T07:58:31;4.88;;;1.05;;
47167;SDS011;32931;47.778;17.806;2022-08-21T08:00:57;2.60;;;1.05;;
47167;SDS011;32931;47.778;17.806;2022-08-21T08:03:24;3.83;;;1.00;;
47167;SDS011;32931;47.778;17.806;2022-08-21T08:05:50;1.13;;;0.93;;
47167;SDS011;32931;47.778;17.806;2022-08-21T08:08:16;3.33;;;0.93;;
47167;SDS011;32931;47.778;17.806;2022-08-21T08:10:43;3.45;;;0.85;;
47167;SDS011;32931;47.778;17.806;2022-08-21T08:13:10;2.28;;;0.90;;
47167;SDS011;32931;47.778;17.806;2022-08-21T08:15:37;1.10;;;0.70;;
47167;SDS011;32931;47.778;17.806;2022-08-21T08:18:03;1.55;;;0.70;;
47167;SDS011;32931;47.778;17.806;2022-08-21T08:20:29;1.48;;;0.90;;
47167;SDS011;32931;47.778;17.806;2022-08-21T08:22:56;3.08;;;0.75;;
47167;SDS011;32931;47.778;17.806;2022-08-21T08:25:23;1.15;;;0.90;;
47167;SDS011;32931;47.778;17.806;2022-08-21T08:27:51;0.68;;;0.63;;
47167;SDS011;32931;47.778;17.806;2022-08-21T08:30:18;1.23;;;0.73;;
47167;SDS011;32931;47.778;17.806;2022-08-21T08:32:46;3.17;;;0.57;;
47167;SDS011;32931;47.778;17.806;2022-08-21T08:35:13;0.85;;;0.60;;
47167;SDS011;32931;47.778;17.806;2022-08-21T08:37:40;3.03;;;0.90;;
47167;SDS011;32931;47.778;17.806;2022-08-21T08:40:10;2.45;;;0.60;;
47167;SDS011;32931;47.778;17.806;2022-08-21T08:42:55;1.08;;;0.80;;
47167;SDS011;32931;47.778;17.806;2022-08-21T08:45:22;0.75;;;0.70;;
47167;SDS011;32931;47.778;17.806;2022-08-21T08:48:02;1.63;;;0.70;;
47167;SDS011;32931;47.778;17.806;2022-08-21T08:53:05;1.98;;;0.73;;
47167;SDS011;32931;47.778;17.806;2022-08-21T08:55:39;0.73;;;0.60;;
47167;SDS011;32931;47.778;17.806;2022-08-21T08:58:07;2.70;;;0.50;;
47167;SDS011;32931;47.778;17.806;2022-08-21T09:00:39;1.00;;;0.50;;
47167;SDS011;32931;47.778;17.806;2022-08-21T09:03:05;1.75;;;0.70;;
47167;SDS011;32931;47.778;17.806;2022-08-21T09:05:40;0.82;;;0.60;;
47167;SDS011;32931;47.778;17.806;2022-08-21T09:24:59;1.67;;;0.50;;
47167;SDS011;32931;47.778;17.806;2022-08-21T09:27:37;3.50;;;0.55;;
47167;SDS011;32931;47.778;17.806;2022-08-21T09:30:05;1.40;;;0.50;;
47167;SDS011;32931;47.778;17.806;2022-08-21T09:32:34;4.15;;;0.60;;
47167;SDS011;32931;47.778;17.806;2022-08-21T09:37:56;1.30;;;0.47;;
47167;SDS011;32931;47.778;17.806;2022-08-21T09:40:27;0.85;;;0.60;;
47167;SDS011;32931;47.778;17.806;2022-08-21T09:42:58;2.63;;;0.50;;
47167;SDS011;32931;47.778;17.806;2022-08-21T09:45:30;0.63;;;0.50;;
47167;SDS011;32931;47.778;17.806;2022-08-21T09:48:10;1.73;;;0.63;;
47167;SDS011;32931;47.778;17.806;2022-08-21T09:50:48;2.90;;;0.50;;
47167;SDS011;32931;47.778;17.806;2022-08-21T09:53:16;0.40;;;0.40;;
47167;SDS011;32931;47.778;17.806;2022-08-21T09:55:53;1.02;;;0.50;;
47167;SDS011;32931;47.778;17.806;2022-08-21T09:58:45;0.65;;;0.40;;
47167;SDS011;32931;47.778;17.806;2022-08-21T10:01:15;0.50;;;0.40;;
47167;SDS011;32931;47.778;17.806;2022-08-21T10:03:43;0.57;;;0.38;;
47167;SDS011;32931;47.778;17.806;2022-08-21T10:06:19;3.28;;;0.40;;
47167;SDS011;32931;47.778;17.806;2022-08-21T10:08:48;0.80;;;0.40;;
47167;SDS011;32931;47.778;17.806;2022-08-21T10:11:15;0.90;;;0.40;;
47167;SDS011;32931;47.778;17.806;2022-08-21T10:16:40;1.77;;;0.35;;
47167;SDS011;32931;47.778;17.806;2022-08-21T10:22:14;0.57;;;0.47;;
47167;SDS011;32931;47.778;17.806;2022-08-21T10:35:23;4.22;;;0.47;;
47167;SDS011;32931;47.778;17.806;2022-08-21T10:40:36;0.50;;;0.40;;
47167;SDS011;32931;47.778;17.806;2022-08-21T10:43:21;1.35;;;0.40;;
47167;SDS011;32931;47.778;17.806;2022-08-21T10:46:18;0.60;;;0.40;;
47167;SDS011;32931;47.778;17.806;2022-08-21T10:49:09;3.28;;;0.40;;
47167;SDS011;32931;47.778;17.806;2022-08-21T10:52:45;1.25;;;0.50;;
47167;SDS011;32931;47.778;17.806;2022-08-21T10:54:52;1.05;;;0.40;;
47167;SDS011;32931;47.778;17.806;2022-08-21T10:57:27;0.85;;;0.50;;
47167;SDS011;32931;47.778;17.806;2022-08-21T11:00:06;1.83;;;0.50;;
47167;SDS011;32931;47.778;17.806;2022-08-21T11:02:39;5.50;;;0.70;;
47167;SDS011;32931;47.778;17.806;2022-08-21T11:05:24;2.50;;;0.50;;
47167;SDS011;32931;47.778;17.806;2022-08-21T11:08:03;0.50;;;0.50;;
47167;SDS011;32931;47.778;17.806;2022-08-21T11:22:23;1.63;;;0.65;;
47167;SDS011;32931;47.778;17.806;2022-08-21T11:27:40;1.30;;;0.50;;
47167;SDS011;32931;47.778;17.806;2022-08-21T11:30:16;0.88;;;0.50;;
47167;SDS011;32931;47.778;17.806;2022-08-21T11:35:25;1.50;;;0.40;;
47167;SDS011;32931;47.778;17.806;2022-08-21T11:38:49;1.13;;;0.40;;
47167;SDS011;32931;47.778;17.806;2022-08-21T11:41:14;1.00;;;0.60;;
47167;SDS011;32931;47.778;17.806;2022-08-21T11:54:58;2.47;;;0.65;;
47167;SDS011;32931;47.778;17.806;2022-08-21T12:00:05;1.85;;;0.70;;
47167;SDS011;32931;47.778;17.806;2022-08-21T12:02:42;3.28;;;0.80;;
47167;SDS011;32931;47.778;17.806;2022-08-21T12:05:38;1.98;;;0.70;;
47167;SDS011;32931;47.778;17.806;2022-08-21T12:08:14;1.23;;;0.65;;
47167;SDS011;32931;47.778;17.806;2022-08-21T12:11:21;2.92;;;0.60;;
47167;SDS011;32931;47.778;17.806;2022-08-21T12:13:52;2.05;;;0.57;;
47167;SDS011;32931;47.778;17.806;2022-08-21T12:16:37;1.70;;;0.55;;
47167;SDS011;32931;47.778;17.806;2022-08-21T12:19:09;2.85;;;0.70;;
47167;SDS011;32931;47.778;17.806;2022-08-21T12:21:52;1.10;;;0.70;;
47167;SDS011;32931;47.778;17.806;2022-08-21T12:26:57;0.85;;;0.70;;
47167;SDS011;32931;47.778;17.806;2022-08-21T12:29:39;3.10;;;0.60;;
47167;SDS011;32931;47.778;17.806;2022-08-21T12:33:20;0.50;;;0.50;;
47167;SDS011;32931;47.778;17.806;2022-08-21T12:35:47;3.20;;;0.70;;
47167;SDS011;32931;47.778;17.806;2022-08-21T12:40:47;3.67;;;0.70;;
47167;SDS011;32931;47.778;17.806;2022-08-21T12:43:21;1.02;;;0.60;;
47167;SDS011;32931;47.778;17.806;2022-08-21T12:45:59;3.17;;;0.70;;
47167;SDS011;32931;47.778;17.806;2022-08-21T12:48:51;1.05;;;0.70;;
47167;SDS011;32931;47.778;17.806;2022-08-21T12:53:57;2.42;;;0.60;;
47167;SDS011;32931;47.778;17.806;2022-08-21T12:56:29;1.48;;;0.80;;
47167;SDS011;32931;47.778;17.806;2022-08-21T13:01:31;1.13;;;0.68;;
47167;SDS011;32931;47.778;17.806;2022-08-21T13:04:10;2.13;;;0.75;;
47167;SDS011;32931;47.778;17.806;2022-08-21T13:06:39;0.75;;;0.75;;
47167;SDS011;32931;47.778;17.806;2022-08-21T13:09:13;5.07;;;0.70;;
47167;SDS011;32931;47.778;17.806;2022-08-21T13:11:42;0.80;;;0.68;;
47167;SDS011;32931;47.778;17.806;2022-08-21T13:14:30;0.98;;;0.80;;
47167;SDS011;32931;47.778;17.806;2022-08-21T13:17:00;1.23;;;0.60;;
47167;SDS011;32931;47.778;17.806;2022-08-21T13:19:31;3.20;;;0.70;;
47167;SDS011;32931;47.778;17.806;2022-08-21T13:21:58;1.27;;;0.75;;
47167;SDS011;32931;47.778;17.806;2022-08-21T13:24:26;3.05;;;0.70;;
47167;SDS011;32931;47.778;17.806;2022-08-21T13:26:54;1.92;;;0.63;;
47167;SDS011;32931;47.778;17.806;2022-08-21T13:29:27;1.60;;;0.70;;
47167;SDS011;32931;47.778;17.806;2022-08-21T13:31:56;3.92;;;0.70;;
47167;SDS011;32931;47.778;17.806;2022-08-21T13:34:26;3.25;;;0.45;;
47167;SDS011;32931;47.778;17.806;2022-08-21T13:36:59;0.63;;;0.40;;
47167;SDS011;32931;47.778;17.806;2022-08-21T13:39:28;2.42;;;0.45;;
47167;SDS011;32931;47.778;17.806;2022-08-21T13:41:57;3.80;;;0.47;;
47167;SDS011;32931;47.778;17.806;2022-08-21T13:44:35;2.30;;;0.22;;
47167;SDS011;32931;47.778;17.806;2022-08-21T13:47:07;2.35;;;0.30;;
47167;SDS011;32931;47.778;17.806;2022-08-21T13:49:38;1.58;;;0.40;;
47167;SDS011;32931;47.778;17.806;2022-08-21T13:52:15;0.68;;;0.35;;
47167;SDS011;32931;47.778;17.806;2022-08-21T13:54:43;0.75;;;0.40;;
47167;SDS011;32931;47.778;17.806;2022-08-21T13:57:26;10.55;;;0.60;;
47167;SDS011;32931;47.778;17.806;2022-08-21T14:00:09;1.95;;;0.35;;
47167;SDS011;32931;47.778;17.806;2022-08-21T14:02:42;8.27;;;0.40;;
47167;SDS011;32931;47.778;17.806;2022-08-21T14:05:15;1.63;;;0.20;;
47167;SDS011;32931;47.778;17.806;2022-08-21T14:07:46;1.92;;;0.40;;
47167;SDS011;32931;47.778;17.806;2022-08-21T14:10:16;1.00;;;0.20;;
47167;SDS011;32931;47.778;17.806;2022-08-21T14:12:48;1.08;;;0.30;;
47167;SDS011;32931;47.778;17.806;2022-08-21T14:15:15;8.38;;;0.50;;
47167;SDS011;32931;47.778;17.806;2022-08-21T14:17:45;6.00;;;0.38;;
47167;SDS011;32931;47.778;17.806;2022-08-21T14:20:25;2.67;;;0.50;;
47167;SDS011;32931;47.778;17.806;2022-08-21T14:23:01;1.83;;;0.32;;
47167;SDS011;32931;47.778;17.806;2022-08-21T14:25:37;0.60;;;0.28;;
47167;SDS011;32931;47.778;17.806;2022-08-21T14:28:29;2.95;;;0.35;;
47167;SDS011;32931;47.778;17.806;2022-08-21T14:30:57;1.30;;;0.13;;
47167;SDS011;32931;47.778;17.806;2022-08-21T14:33:36;3.40;;;0.30;;
47167;SDS011;32931;47.778;17.806;2022-08-21T14:36:04;0.88;;;0.28;;
47167;SDS011;32931;47.778;17.806;2022-08-21T14:38:35;1.73;;;0.20;;
47167;SDS011;32931;47.778;17.806;2022-08-21T14:41:25;3.38;;;0.17;;
47167;SDS011;32931;47.778;17.806;2022-08-21T14:43:53;0.80;;;0.20;;
47167;SDS011;32931;47.778;17.806;2022-08-21T14:46:22;0.20;;;0.10;;
47167;SDS011;32931;47.778;17.806;2022-08-21T14:48:50;1.85;;;0.20;;
47167;SDS011;32931;47.778;17.806;2022-08-21T14:51:16;0.10;;;0.10;;
47167;SDS011;32931;47.778;17.806;2022-08-21T14:53:43;2.15;;;0.10;;
47167;SDS011;32931;47.778;17.806;2022-08-21T14:56:10;1.55;;;0.10;;
47167;SDS011;32931;47.778;17.806;2022-08-21T14:58:43;3.30;;;0.20;;
47167;SDS011;32931;47.778;17.806;2022-08-21T15:03:38;3.65;;;0.28;;
47167;SDS011;32931;47.778;17.806;2022-08-21T15:06:05;0.10;;;0.10;;
47167;SDS011;32931;47.778;17.806;2022-08-21T15:08:33;1.23;;;0.30;;
47167;SDS011;32931;47.778;17.806;2022-08-21T15:11:00;0.75;;;0.20;;
47167;SDS011;32931;47.778;17.806;2022-08-21T15:13:28;2.67;;;0.30;;
47167;SDS011;32931;47.778;17.806;2022-08-21T15:15:54;5.28;;;0.30;;
47167;SDS011;32931;47.778;17.806;2022-08-21T15:18:22;3.45;;;0.28;;
47167;SDS011;32931;47.778;17.806;2022-08-21T15:20:50;2.63;;;0.40;;
47167;SDS011;32931;47.778;17.806;2022-08-21T15:23:17;2.17;;;0.38;;
47167;SDS011;32931;47.778;17.806;2022-08-21T15:25:44;2.25;;;0.30;;
47167;SDS011;32931;47.778;17.806;2022-08-21T15:28:12;4.28;;;0.30;;
47167;SDS011;32931;47.778;17.806;2022-08-21T15:30:40;1.17;;;0.35;;
47167;SDS011;32931;47.778;17.806;2022-08-21T15:33:07;5.40;;;0.50;;
47167;SDS011;32931;47.778;17.806;2022-08-21T15:35:34;0.60;;;0.30;;
47167;SDS011;32931;47.778;17.806;2022-08-21T15:38:01;0.80;;;0.30;;
47167;SDS011;32931;47.778;17.806;2022-08-21T15:40:27;3.60;;;0.45;;
47167;SDS011;32931;47.778;17.806;2022-08-21T15:42:56;4.75;;;0.40;;
47167;SDS011;32931;47.778;17.806;2022-08-21T15:45:26;0.38;;;0.30;;
47167;SDS011;32931;47.778;17.806;2022-08-21T15:47:52;3.03;;;0.65;;
47167;SDS011;32931;47.778;17.806;2022-08-21T15:50:20;0.57;;;0.35;;
47167;SDS011;32931;47.778;17.806;2022-08-21T15:52:47;1.88;;;0.60;;
47167;SDS011;32931;47.778;17.806;2022-08-21T15:55:13;2.35;;;0.45;;
47167;SDS011;32931;47.778;17.806;2022-08-21T15:57:44;1.15;;;0.40;;
47167;SDS011;32931;47.778;17.806;2022-08-21T16:00:14;2.67;;;0.50;;
47167;SDS011;32931;47.778;17.806;2022-08-21T16:02:43;2.92;;;0.38;;
47167;SDS011;32931;47.778;17.806;2022-08-21T16:05:11;1.55;;;0.50;;
47167;SDS011;32931;47.778;17.806;2022-08-21T16:07:41;3.10;;;0.80;;
47167;SDS011;32931;47.778;17.806;2022-08-21T16:10:09;1.05;;;0.50;;
47167;SDS011;32931;47.778;17.806;2022-08-21T16:12:37;1.08;;;0.60;;
47167;SDS011;32931;47.778;17.806;2022-08-21T16:15:08;0.95;;;0.38;;
47167;SDS011;32931;47.778;17.806;2022-08-21T16:17:36;0.75;;;0.43;;
47167;SDS011;32931;47.778;17.806;2022-08-21T16:20:05;6.43;;;0.60;;
47167;SDS011;32931;47.778;17.806;2022-08-21T16:22:34;23.08;;;1.40;;
47167;SDS011;32931;47.778;17.806;2022-08-21T16:25:00;56.42;;;3.30;;
47167;SDS011;32931;47.778;17.806;2022-08-21T16:27:27;86.47;;;3.92;;